Latest Coastal Weather Observations for Low Head

IDT60701

Issued at 8:05 pm EST Wednesday 23 April 2014 (issued every 10 minutes, with the page automatically refreshed every 10 minutes)

About coastal observations | Map of coastal stations | Coastal observations for TAS | Marine services | Other Formats
Station Details ID: 091293 Name: LOW HEAD Lat: -41.05 Lon: 146.79 Height: 3.0 m
Data from the previous 72 hours. | See also: Recent months at Low Head
Date/Time
EST
Temp

°C
Wind Pressure Rain
since 9am
mm
Weather Cloud Vis
km
Sea
Height
m
Swell
Dir
 
Speed
knots
Gust
knots
hPa Trend Height
m
Period
s
Dir
23/08:00pm 15.4 NW 16 19 1010.5 - 0.4 - - - - - - -
23/07:30pm 15.4 NW 17 21 1010.7 - 0.4 - - - - - - -
23/07:00pm 15.4 NW 16 19 1010.8 - 0.4 - - - - - - -
23/06:30pm 15.4 NW 15 18 1010.9 - 0.4 - - - - - - -
23/06:00pm 14.5 WNW 18 26 1010.9 - 0.4 - - - - - - -
23/05:30pm 15.5 NW 17 20 1010.9 - 0.2 - - - - - - -
23/05:00pm 15.4 NW 14 17 1011.0 - 0.2 - - - - - - -
23/04:30pm 15.2 NW 17 22 1011.3 - 0.2 - - - - - - -
23/04:00pm 15.4 NW 13 17 1011.4 - 0.2 - - - - - - -
23/03:30pm 13.8 WNW 13 16 1011.9 - 0.2 - - - - - - -
23/03:13pm 14.4 NW 17 21 1012.1 - 0.0 - - - - - - -
23/03:00pm 15.0 WNW 6 7 1011.8 R 0.0 Fine Cloudy 25 <0.5 0.3 3 NW
23/02:30pm 14.5 W 8 10 1012.0 - 0.0 - - - - - - -
23/02:00pm 15.2 W 7 10 1012.5 - 0.0 - - - - - - -
23/01:30pm 15.0 W 6 9 1012.7 - 0.0 - - - - - - -
23/01:00pm 15.1 WSW 9 12 1013.2 - 0.0 - - - - - - -
23/12:30pm 15.5 W 7 8 1013.5 - 0.0 - - - - - - -
23/12:00pm 16.0 NW 4 5 1013.9 - 0.0 - - - - - - -
23/11:30am 16.1 NE 3 4 1014.1 - 0.0 - - - - - - -
23/11:00am 15.5 S 1 3 1014.4 - 0.0 - - - - - - -
23/10:30am 14.3 S 4 5 1014.7 - 0.0 - - - - - - -
23/10:00am 13.3 S 6 6 1015.2 - 0.0 - - - - - - -
23/09:30am 12.2 S 5 6 1015.5 - 0.0 - - - - - - -
23/09:00am 11.0 SSE 6 7 1015.7 F 0.0 Fine Mostly cloudy 25 1 1.0 3 -
23/08:30am 10.9 SE 5 7 1015.4 - 0.0 - - - - - - -
23/08:00am 10.0 SSE 7 9 1015.3 - 0.0 - - - - - - -
23/07:30am 9.9 S 7 9 1015.3 - 0.0 - - - - - - -
23/07:00am 9.4 SSE 4 6 1015.1 - 0.0 - - - - - - -
23/06:30am 9.5 SSE 6 7 1014.9 - 0.0 - - - - - - -
23/06:00am 9.8 S 5 6 1015.0 R 0.0 Fine Mostly clear 25 <0.5 0.5 3 -
23/05:30am 9.9 SSE 7 8 1014.9 - 0.0 - - - - - - -
23/05:00am 10.3 SSE 6 7 1014.9 - 0.0 - - - - - - -
23/04:30am 11.1 SSE 5 7 1014.8 - 0.0 - - - - - - -
23/04:00am 11.5 SSE 3 4 1014.8 - 0.0 - - - - - - -
23/03:30am 12.5 SW 7 8 1014.7 - 0.0 - - - - - - -
23/03:00am 12.7 SSW 6 8 1014.7 - 0.0 - - - - - - -
23/02:30am 13.0 SSW 7 9 1014.9 - 0.0 - - - - - - -
23/02:00am 14.4 W 12 14 1015.1 - 0.0 - - - - - - -
23/01:30am 14.3 W 12 15 1015.3 - 0.0 - - - - - - -
23/01:00am 14.5 W 12 15 1015.4 - 0.0 - - - - - - -
23/12:30am 14.1 W 13 15 1015.4 - 0.0 - - - - - - -
23/12:00am 14.3 W 13 15 1015.3 - 0.0 - - - - - - -
 
Date/Time
EST
Temp

°C
Wind Pressure Rain
since 9am
mm
Weather Cloud Vis
km
Sea
Height
m
Swell
Dir
 
Speed
knots
Gust
knots
hPa Trend Height
m
Period
s
Dir
22/11:30pm 14.2 W 14 16 1015.3 - 0.0 - - - - - - -
22/11:00pm 14.4 W 15 18 1015.2 - 0.0 - - - - - - -
22/10:30pm 14.6 W 16 19 1015.2 - 0.0 - - - - - - -
22/10:00pm 14.6 W 18 21 1015.0 - 0.0 - - - - - - -
22/09:30pm 14.7 W 20 23 1014.7 - 0.0 - - - - - - -
22/09:00pm 14.9 W 19 23 1014.4 - 0.0 - - - - - - -
22/08:30pm 15.0 W 18 21 1014.1 - 0.0 - - - - - - -
22/08:00pm 15.1 W 18 21 1013.7 - 0.0 - - - - - - -
22/07:30pm 15.4 W 19 23 1013.4 - 0.0 - - - - - - -
22/07:00pm 15.4 WSW 19 22 1013.0 - 0.0 - - - - - - -
22/06:30pm 15.6 WSW 16 19 1012.5 - 0.0 - - - - - - -
22/06:00pm 15.8 W 20 25 1012.0 - 0.0 - - - - - - -
22/05:30pm 16.0 W 21 26 1011.6 - 0.0 - - - - - - -
22/05:00pm 16.4 W 23 27 1011.0 - 0.0 - - - - - - -
22/04:30pm 16.8 W 20 25 1010.8 - 0.0 - - - - - - -
22/04:00pm 16.9 W 21 25 1010.5 - 0.0 - - - - - - -
22/03:30pm 17.1 W 23 26 1010.3 - 0.0 - - - - - - -
22/03:00pm 17.1 W 22 26 1010.1 R 0.0 Fine Mostly cloudy 25 2 1.5 3 NW
22/02:42pm 17.2 W 22 26 1009.9 - 0.0 - - - - - - -
22/02:30pm 17.5 WNW 24 29 1009.8 - 0.0 - - - - - - -
22/02:00pm 17.5 WNW 24 27 1009.5 - 0.0 - - - - - - -
22/01:30pm 17.4 WNW 22 26 1009.6 - 0.0 - - - - - - -
22/01:00pm 17.1 WNW 23 27 1009.5 - 0.0 - - - - - - -
22/12:30pm 17.1 WNW 22 25 1009.6 - 0.0 - - - - - - -
22/12:00pm 17.0 WNW 21 27 1009.7 - 0.0 - - - - - - -
22/11:30am 16.9 WNW 20 24 1009.7 - 0.0 - - - - - - -
22/11:00am 16.9 WNW 20 23 1009.8 - 0.0 - - - - - - -
22/10:30am 16.9 WNW 20 25 1009.7 - 0.0 - - - - - - -
22/10:00am 16.4 WNW 19 23 1009.6 - 0.0 - - - - - - -
22/09:30am 16.4 WNW 17 21 1009.6 - 0.0 - - - - - - -
22/09:00am 16.3 WNW 17 20 1009.3 R 31.4 Fine Cloudy 20 2 2.5 3 -
22/08:30am 16.4 WNW 17 21 1009.2 - 31.4 - - - - - - -
22/08:00am 16.3 NW 24 31 1009.1 - 31.4 - - - - - - -
22/07:30am 16.0 NW 28 36 1008.8 - 31.2 - - - - - - -
22/07:00am 15.8 NNW 27 35 1008.4 - 28.2 - - - - - - -
22/06:30am 16.4 NW 28 33 1008.0 - 25.4 - - - - - - -
22/06:00am 16.6 NW 29 35 1007.8 F 24.0 Hailstorm Cloudy 1 2 2.0 3 NW
22/05:30am 16.8 NW 28 35 1007.9 - 23.4 - - - - - - -
22/05:02am 16.4 NW 30 40 1008.2 - 22.0 - - - - - - -
22/05:00am 16.2 NW 31 40 1008.2 - 21.6 - - - - - - -
22/04:55am 17.7 NW 29 40 1008.0 - 19.8 - - - - - - -
22/04:30am 18.0 NNW 26 33 1007.7 - 19.8 - - - - - - -
22/04:00am 17.9 NNW 22 26 1007.8 - 19.8 - - - - - - -
22/03:30am 17.8 NW 25 29 1007.9 - 19.6 - - - - - - -
22/03:00am 17.9 NW 23 29 1008.0 - 19.6 - - - - - - -
22/02:30am 17.7 NNW 22 25 1008.4 - 19.6 - - - - - - -
22/02:00am 17.7 NNW 20 25 1008.5 - 19.6 - - - - - - -
22/01:30am 17.6 NNW 22 26 1008.9 - 19.6 - - - - - - -
22/01:00am 17.3 NNW 19 23 1009.3 - 19.6 - - - - - - -
22/12:30am 17.1 NNW 17 20 1009.9 - 19.4 - - - - - - -
22/12:00am 16.9 N 18 23 1010.2 - 19.0 - - - - - - -
 
Date/Time
EST
Temp

°C
Wind Pressure Rain
since 9am
mm
Weather Cloud Vis
km
Sea
Height
m
Swell
Dir
 
Speed
knots
Gust
knots
hPa Trend Height
m
Period
s
Dir
21/11:30pm 16.8 N 19 25 1010.2 - 18.6 - - - - - - -
21/11:00pm 16.8 N 22 26 1010.8 - 18.6 - - - - - - -
21/10:30pm 17.0 N 21 24 1011.1 - 18.2 - - - - - - -
21/10:00pm 16.7 N 19 21 1011.2 - 18.0 - - - - - - -
21/09:30pm 16.3 NNE 21 24 1011.4 - 17.8 - - - - - - -
21/09:00pm 16.1 NNE 17 21 1012.3 - 17.0 - - - - - - -
21/08:30pm 16.5 NNE 17 20 1012.2 - 16.6 - - - - - - -
21/08:00pm 16.2 NNE 17 19 1012.3 - 16.6 - - - - - - -
21/07:30pm 15.7 N 15 17 1012.7 - 16.6 - - - - - - -
21/07:00pm 15.4 N 15 20 1012.7 - 16.6 - - - - - - -
21/06:30pm 14.7 N 18 21 1012.8 - 16.2 - - - - - - -
21/06:00pm 15.0 N 17 23 1012.3 - 15.0 - - - - - - -
21/05:59pm 15.0 N 17 23 1012.3 - 15.0 - - - - - - -
21/05:30pm 11.2 SE 7 11 1012.6 - 12.2 - - - - - - -
21/05:00pm 10.7 S 12 17 1012.7 - 11.8 - - - - - - -
21/04:30pm 10.3 S 14 17 1012.9 - 11.8 - - - - - - -
21/04:00pm 10.2 S 14 20 1013.5 - 9.0 - - - - - - -
21/03:30pm 10.6 SSE 13 17 1013.6 - 6.6 - - - - - - -
21/03:00pm 10.2 SSE 12 18 1013.9 F 4.4 Showers Cloudy 5 <0.5 0.5 3 -
21/02:30pm 10.3 SSE 10 13 1014.6 - 1.0 - - - - - - -
21/02:00pm 10.7 SSE 9 11 1015.0 - 0.2 - - - - - - -
21/01:30pm 11.2 ESE 6 8 1015.1 - 0.0 - - - - - - -
21/01:00pm 10.2 SE 6 8 1015.8 - 0.0 - - - - - - -
21/12:30pm 9.8 SSE 9 10 1016.5 - 0.0 - - - - - - -
21/12:00pm 9.4 SSE 9 11 1016.9 - 0.0 - - - - - - -
21/11:30am 9.1 SSE 10 13 1017.4 - 0.0 - - - - - - -
21/11:00am 9.1 SSE 12 14 1017.9 - 0.0 - - - - - - -
21/10:30am 8.7 SSE 10 13 1017.8 - 0.0 - - - - - - -
21/10:00am 8.8 SSE 10 13 1018.6 - 0.0 - - - - - - -
21/09:30am 8.6 SSE 10 14 1018.4 - 0.0 - - - - - - -
21/09:00am 8.4 SSE 12 14 1018.6 R 0.0 Fine Cloudy 20 <0.5 0.5 3 -
21/08:30am 8.5 SSE 12 15 1018.7 - 0.0 - - - - - - -
21/08:00am 8.3 SSE 14 17 1018.2 - 0.0 - - - - - - -
21/07:30am 7.9 SSE 12 15 1018.1 - 0.0 - - - - - - -
21/07:00am 7.9 SSE 12 15 1017.8 - 0.0 - - - - - - -
21/06:30am 7.7 SSE 12 15 1017.5 - 0.0 - - - - - - -
21/06:00am 8.0 SSE 12 15 1017.2 R 0.0 Fine Mostly cloudy 25 1 0.5 3 NW
21/05:30am 8.0 SSE 11 14 1017.1 - 0.0 - - - - - - -
21/05:00am 8.3 SSE 9 13 1017.1 - 0.0 - - - - - - -
21/04:30am 8.1 SSE 9 11 1016.7 - 0.0 - - - - - - -
21/04:00am 7.8 SSE 8 10 1016.5 - 0.0 - - - - - - -
21/03:30am 8.6 S 9 11 1016.4 - 0.0 - - - - - - -
21/03:00am 9.0 S 7 8 1016.3 - 0.0 - - - - - - -
21/02:30am 10.3 S 4 7 1016.3 - 0.0 - - - - - - -
21/02:00am 10.9 WSW 5 7 1016.2 - 0.0 - - - - - - -
21/01:30am 10.6 SSW 7 10 1016.1 - 0.0 - - - - - - -
21/01:00am 11.8 WSW 13 14 1016.0 - 0.0 - - - - - - -
21/12:30am 12.0 WSW 14 17 1015.6 - 0.0 - - - - - - -
21/12:00am 12.4 WSW 13 15 1015.4 - 0.0 - - - - - - -
 
Date/Time
EST
Temp

°C
Wind Pressure Rain
since 9am
mm
Weather Cloud Vis
km
Sea
Height
m
Swell
Dir
 
Speed
knots
Gust
knots
hPa Trend Height
m
Period
s
Dir
20/11:30pm 12.7 WSW 14 16 1015.3 - 0.0 - - - - - - -
20/11:00pm 12.8 WSW 12 14 1015.3 - 0.0 - - - - - - -
20/10:30pm 12.9 WSW 12 14 1015.2 - 0.0 - - - - - - -
20/10:00pm 13.5 WSW 14 17 1014.9 - 0.0 - - - - - - -
20/09:30pm 13.7 WSW 13 15 1014.8 - 0.0 - - - - - - -
20/09:00pm 14.0 WSW 13 16 1014.4 - 0.0 - - - - - - -
20/08:30pm 14.5 WSW 15 18 1014.0 - 0.0 - - - - - - -

Other Formats:

Comma delimited format used in spreadsheet applications
http://www.bom.gov.au/fwo/IDT60701/IDT60701.95964.axf

JavaScript Object Notation format (JSON) in row-major order
http://www.bom.gov.au/fwo/IDT60701/IDT60701.95964.json